Time;durP1;ratioP1;P1;durP2;ratioP2;P2;SDS_P1;SDS_P2;PMS_P1;PMS_P2;Temp;Humidity;BMP_temperature;BMP_pressure;BME280_temperature;BME280_humidity;BME280_pressure;Samples;Min_cycle;Max_cycle;Signal;HPM_P1;HPM_P2
2022/03/31 00:01:05;;;;;;;7.20;4.70;;;19.80;36.60;;;;;;5032860;28;20508;-73
2022/03/31 00:03:31;;;;;;;5.90;4.13;;;19.80;36.60;;;;;;5015977;28;20018;-72
2022/03/31 00:05:57;;;;;;;5.40;4.70;;;19.80;36.60;;;;;;5016403;28;20025;-74
2022/03/31 00:08:23;;;;;;;6.22;4.72;;;19.80;36.70;;;;;;5033143;28;20026;-82
2022/03/31 00:10:53;;;;;;;5.18;4.10;;;19.80;36.70;;;;;;5033441;28;20439;-86
2022/03/31 00:13:22;;;;;;;5.97;4.35;;;19.80;36.70;;;;;;5016618;28;20014;-76
2022/03/31 00:15:48;;;;;;;4.82;4.20;;;19.80;36.80;;;;;;5033448;28;20115;-75
2022/03/31 00:18:14;;;;;;;4.85;4.20;;;19.80;36.80;;;;;;5034059;28;20493;-75
2022/03/31 00:20:41;;;;;;;6.88;4.25;;;19.80;36.90;;;;;;5038298;28;20083;-75
2022/03/31 00:23:07;;;;;;;6.28;4.30;;;19.80;36.90;;;;;;5038133;28;20485;-78
2022/03/31 00:25:33;;;;;;;7.47;4.80;;;19.80;36.90;;;;;;5038664;28;20374;-82
2022/03/31 00:27:59;;;;;;;5.68;4.32;;;19.80;37.00;;;;;;5038944;28;20396;-75
2022/03/31 00:30:25;;;;;;;7.28;4.60;;;19.70;36.90;;;;;;5021178;28;20018;-85
2022/03/31 00:32:52;;;;;;;5.50;4.18;;;19.70;36.90;;;;;;5037823;28;20013;-76
2022/03/31 00:35:17;;;;;;;5.35;4.05;;;19.80;37.00;;;;;;5040660;28;20025;-74
2022/03/31 00:37:44;;;;;;;6.18;4.22;;;19.80;37.00;;;;;;5040609;28;20543;-75
2022/03/31 00:40:11;;;;;;;4.97;4.10;;;19.80;37.00;;;;;;5023916;28;20021;-77
2022/03/31 00:42:44;;;;;;;5.85;4.38;;;19.70;37.10;;;;;;5040613;28;20053;-75
2022/03/31 00:45:18;;;;;;;6.15;4.72;;;19.70;37.10;;;;;;5023917;28;20006;-75
2022/03/31 00:47:44;;;;;;;5.85;4.25;;;19.70;37.10;;;;;;5041307;28;20478;-75
2022/03/31 00:50:11;;;;;;;5.60;4.05;;;19.70;37.10;;;;;;5041813;28;20045;-75
2022/03/31 00:52:37;;;;;;;5.85;4.18;;;19.70;37.10;;;;;;5040110;28;20018;-75
2022/03/31 00:55:04;;;;;;;6.38;4.60;;;19.70;37.10;;;;;;5040483;28;20022;-78
2022/03/31 00:57:30;;;;;;;5.80;4.30;;;19.70;37.20;;;;;;5040626;28;20476;-79
2022/03/31 00:59:57;;;;;;;5.28;4.28;;;19.70;37.20;;;;;;5023958;28;20033;-77
2022/03/31 01:02:26;;;;;;;6.75;4.70;;;19.70;37.30;;;;;;5041123;28;20026;-76
2022/03/31 01:04:52;;;;;;;6.35;4.35;;;19.70;37.30;;;;;;5040446;28;20045;-87
2022/03/31 01:07:18;;;;;;;6.57;5.05;;;19.70;37.30;;;;;;5039537;28;20036;-74
2022/03/31 01:09:44;;;;;;;6.35;4.38;;;19.70;37.30;;;;;;5039798;28;20025;-74
2022/03/31 01:12:10;;;;;;;5.55;4.13;;;19.60;37.30;;;;;;5040153;28;20032;-74
2022/03/31 01:14:36;;;;;;;5.53;4.30;;;19.70;37.40;;;;;;5039348;28;20060;-84
2022/03/31 01:17:02;;;;;;;5.78;3.97;;;19.70;37.40;;;;;;5039326;28;20037;-78
2022/03/31 01:19:28;;;;;;;6.20;4.18;;;19.70;37.40;;;;;;5038092;28;20491;-84
2022/03/31 01:21:54;;;;;;;5.35;4.32;;;19.70;37.40;;;;;;5036542;28;20022;-82
2022/03/31 01:24:20;;;;;;;6.00;4.15;;;19.70;37.40;;;;;;5037418;28;20472;-74
2022/03/31 01:26:47;;;;;;;5.90;4.20;;;19.70;37.50;;;;;;5037069;28;20021;-74
2022/03/31 01:29:13;;;;;;;6.32;4.30;;;19.70;37.40;;;;;;5037298;28;20445;-74
2022/03/31 01:31:39;;;;;;;4.72;3.95;;;19.70;37.40;;;;;;5038386;28;20045;-74
2022/03/31 01:34:07;;;;;;;5.05;4.18;;;19.70;37.50;;;;;;5037611;28;20021;-78
2022/03/31 01:36:35;;;;;;;4.72;3.88;;;19.70;37.50;;;;;;5038098;28;20022;-76
2022/03/31 01:39:01;;;;;;;5.35;3.90;;;19.60;37.40;;;;;;5037649;28;20029;-75
2022/03/31 01:41:27;;;;;;;5.05;3.55;;;19.60;37.50;;;;;;5036438;28;20020;-73
2022/03/31 01:43:53;;;;;;;4.60;3.95;;;19.60;37.50;;;;;;5036653;28;20025;-76
2022/03/31 01:46:20;;;;;;;5.07;4.03;;;19.70;37.50;;;;;;5036656;28;20048;-76
2022/03/31 01:48:46;;;;;;;4.95;4.07;;;19.70;37.50;;;;;;5020133;28;20159;-78
2022/03/31 01:51:12;;;;;;;6.15;4.18;;;19.60;37.50;;;;;;5035743;28;20014;-77
2022/03/31 01:53:38;;;;;;;5.30;4.15;;;19.60;37.50;;;;;;5035408;28;20048;-77
2022/03/31 01:56:04;;;;;;;5.95;4.00;;;19.60;37.60;;;;;;5035768;28;20017;-76
2022/03/31 01:58:32;;;;;;;6.40;4.00;;;19.60;37.60;;;;;;5036857;28;20022;-77
2022/03/31 02:00:58;;;;;;;4.70;4.00;;;19.60;37.50;;;;;;5036609;28;20010;-75
2022/03/31 02:03:25;;;;;;;5.05;3.80;;;19.60;37.60;;;;;;5038626;28;20079;-74
2022/03/31 02:05:53;;;;;;;4.68;3.90;;;19.60;37.50;;;;;;5036354;28;20112;-80
2022/03/31 02:08:19;;;;;;;5.63;3.80;;;19.60;37.60;;;;;;5037420;28;20014;-74
2022/03/31 02:10:44;;;;;;;5.85;3.92;;;19.60;37.60;;;;;;5037142;28;20480;-80
2022/03/31 02:13:13;;;;;;;4.40;3.75;;;19.60;37.50;;;;;;5037079;28;20018;-75
2022/03/31 02:15:39;;;;;;;5.75;3.92;;;19.60;37.60;;;;;;5037523;28;20059;-74
2022/03/31 02:18:05;;;;;;;4.95;3.83;;;19.60;37.50;;;;;;5038439;28;20488;-83
2022/03/31 02:20:32;;;;;;;5.75;3.65;;;19.60;37.50;;;;;;5038122;28;20099;-76
2022/03/31 02:23:01;;;;;;;5.57;4.07;;;19.60;37.50;;;;;;5020555;28;20033;-76
2022/03/31 02:25:29;;;;;;;5.78;4.13;;;19.50;37.40;;;;;;5035891;28;20511;-74
2022/03/31 02:27:55;;;;;;;5.22;3.88;;;19.50;37.40;;;;;;5035934;28;20009;-75
2022/03/31 02:30:22;;;;;;;5.57;3.47;;;19.50;37.30;;;;;;5037030;28;20050;-85
2022/03/31 02:32:48;;;;;;;5.00;3.70;;;19.50;37.30;;;;;;5020403;28;20020;-81
2022/03/31 02:35:14;;;;;;;4.35;3.50;;;19.50;37.30;;;;;;5019415;28;20053;-85
2022/03/31 02:37:40;;;;;;;4.65;3.58;;;19.50;37.20;;;;;;5035846;28;20460;-75
2022/03/31 02:40:06;;;;;;;5.05;3.08;;;19.50;37.20;;;;;;5035397;28;20032;-75
2022/03/31 02:42:35;;;;;;;5.68;3.38;;;19.50;37.10;;;;;;5035357;28;20029;-78
2022/03/31 02:45:02;;;;;;;4.93;3.00;;;19.50;37.10;;;;;;5036040;28;20030;-76
2022/03/31 02:47:29;;;;;;;5.30;3.40;;;19.50;37.00;;;;;;5036010;28;20036;-75
2022/03/31 02:49:56;;;;;;;4.32;3.28;;;19.50;37.00;;;;;;5020490;28;20020;-75
2022/03/31 02:52:22;;;;;;;3.85;2.72;;;19.50;37.00;;;;;;5036656;28;20021;-75
2022/03/31 02:57:32;;;;;;;3.30;2.70;;;19.40;36.80;;;;;;5037751;28;20056;-86
2022/03/31 02:59:58;;;;;;;4.63;2.60;;;19.50;36.80;;;;;;5022055;28;20018;-76
2022/03/31 03:02:24;;;;;;;3.63;2.50;;;19.50;36.80;;;;;;5038498;28;20034;-76
2022/03/31 03:04:50;;;;;;;3.45;2.42;;;19.50;36.70;;;;;;5036778;28;20091;-77
2022/03/31 03:07:16;;;;;;;2.88;2.17;;;19.50;36.70;;;;;;5038844;28;20045;-78
2022/03/31 03:09:42;;;;;;;4.90;2.50;;;19.50;36.60;;;;;;5022526;28;20022;-76
2022/03/31 03:12:09;;;;;;;4.40;2.28;;;19.40;36.50;;;;;;5040035;28;20415;-81
2022/03/31 03:14:34;;;;;;;2.80;2.08;;;19.40;36.50;;;;;;5038726;28;20117;-76
2022/03/31 03:17:00;;;;;;;3.35;2.22;;;19.40;36.50;;;;;;5037550;28;20436;-76
2022/03/31 03:19:27;;;;;;;4.65;2.42;;;19.50;36.40;;;;;;5035611;28;20021;-76
2022/03/31 03:21:52;;;;;;;4.50;2.60;;;19.50;36.30;;;;;;5034989;28;20032;-76
2022/03/31 03:24:18;;;;;;;3.63;2.13;;;19.50;36.30;;;;;;5034002;28;20018;-76
2022/03/31 03:26:45;;;;;;;2.63;2.00;;;19.40;36.20;;;;;;5033568;28;20033;-76
2022/03/31 03:29:14;;;;;;;;;;;19.40;36.20;;;;;;5035728;28;20413;-76
2022/03/31 03:31:40;;;;;;;3.72;1.98;;;19.40;36.40;;;;;;5017464;28;19905;-77
2022/03/31 03:34:06;;;;;;;3.05;2.05;;;19.40;36.00;;;;;;5018738;28;20022;-76
2022/03/31 03:36:32;;;;;;;2.90;1.77;;;19.40;36.00;;;;;;5034922;28;20488;-76
2022/03/31 03:38:57;;;;;;;3.22;1.75;;;19.40;35.90;;;;;;5034971;28;20017;-86
2022/03/31 03:41:26;;;;;;;3.05;1.80;;;19.30;35.90;;;;;;5035652;28;20026;-76
2022/03/31 03:43:53;;;;;;;3.22;1.90;;;19.30;35.80;;;;;;5036027;28;20021;-87
2022/03/31 03:46:19;;;;;;;3.53;1.60;;;19.30;35.90;;;;;;5037244;28;20022;-77
2022/03/31 03:48:45;;;;;;;3.90;1.92;;;19.30;35.80;;;;;;5035747;28;20024;-76
2022/03/31 03:51:12;;;;;;;2.72;1.42;;;19.40;35.60;;;;;;5034401;28;20100;-87
2022/03/31 03:53:38;;;;;;;3.28;1.70;;;19.50;35.40;;;;;;5036189;28;20074;-77
2022/03/31 03:56:04;;;;;;;2.63;1.40;;;19.60;35.70;;;;;;5021465;28;20109;-77
2022/03/31 03:58:30;;;;;;;3.63;1.30;;;19.70;35.50;;;;;;5038086;28;20047;-77
2022/03/31 04:00:56;;;;;;;2.53;1.60;;;19.80;35.30;;;;;;5020240;28;20472;-76
2022/03/31 04:03:22;;;;;;;2.70;1.58;;;19.90;35.10;;;;;;5037570;28;20026;-76
2022/03/31 04:05:50;;;;;;;2.03;1.50;;;19.90;34.70;;;;;;5028631;28;20068;-75
2022/03/31 04:08:15;;;;;;;2.28;1.40;;;20.10;34.40;;;;;;5045888;28;20017;-75
2022/03/31 04:10:42;;;;;;;2.17;1.20;;;20.20;34.00;;;;;;5047547;28;20097;-75
2022/03/31 04:13:08;;;;;;;1.85;1.40;;;20.40;33.70;;;;;;5047867;28;20469;-74
2022/03/31 04:15:35;;;;;;;1.88;1.50;;;20.50;33.40;;;;;;5030966;28;20045;-75
2022/03/31 04:18:02;;;;;;;1.98;1.33;;;20.70;33.10;;;;;;5044859;28;20072;-76
2022/03/31 04:20:29;;;;;;;2.33;1.20;;;20.70;32.80;;;;;;5045303;28;20013;-75
2022/03/31 04:22:55;;;;;;;3.00;1.30;;;20.90;32.60;;;;;;5047184;28;20073;-75
2022/03/31 04:25:21;;;;;;;1.77;1.20;;;21.00;32.20;;;;;;5027580;28;20056;-77
2022/03/31 04:27:47;;;;;;;2.17;1.30;;;21.10;31.90;;;;;;5039537;28;20037;-78
2022/03/31 04:30:17;;;;;;;1.52;1.33;;;21.20;31.80;;;;;;5038511;28;20476;-78
2022/03/31 04:32:43;;;;;;;1.42;1.15;;;21.30;31.70;;;;;;5040708;28;20086;-78
2022/03/31 04:35:10;;;;;;;2.30;1.10;;;21.40;31.50;;;;;;5042143;28;20520;-77
2022/03/31 04:37:37;;;;;;;1.67;1.20;;;21.40;31.30;;;;;;5025052;28;20473;-77
2022/03/31 04:40:06;;;;;;;0.93;0.90;;;21.50;31.20;;;;;;5041332;28;20045;-78
2022/03/31 04:42:32;;;;;;;1.33;0.90;;;21.50;31.00;;;;;;5024041;28;20033;-78
2022/03/31 04:44:58;;;;;;;1.83;1.20;;;21.60;30.80;;;;;;5026177;28;20487;-76
2022/03/31 04:47:24;;;;;;;1.42;0.90;;;21.70;30.60;;;;;;5044282;28;20017;-75
2022/03/31 04:49:51;;;;;;;1.00;0.90;;;21.80;30.50;;;;;;5046658;28;20014;-75
2022/03/31 04:52:16;;;;;;;1.00;0.90;;;21.90;30.40;;;;;;5030040;28;20117;-75
2022/03/31 04:54:46;;;;;;;1.10;0.90;;;21.90;30.30;;;;;;5044370;28;20072;-75
2022/03/31 04:57:16;;;;;;;1.42;1.00;;;21.90;30.10;;;;;;5029339;28;20538;-76
2022/03/31 04:59:42;;;;;;;1.33;0.90;;;22.10;30.00;;;;;;5045325;28;20014;-75
2022/03/31 05:02:07;;;;;;;1.10;0.93;;;22.10;30.00;;;;;;5043070;28;20021;-76
2022/03/31 05:04:33;;;;;;;1.02;0.73;;;22.10;30.30;;;;;;5025468;28;20020;-77
2022/03/31 05:07:00;;;;;;;0.65;0.65;;;22.10;29.90;;;;;;5037919;28;20033;-78
2022/03/31 05:09:27;;;;;;;1.08;0.70;;;22.00;29.80;;;;;;5036100;28;20476;-78
2022/03/31 05:11:53;;;;;;;0.75;0.60;;;22.00;29.80;;;;;;5038329;28;20089;-79
2022/03/31 05:14:19;;;;;;;0.60;0.60;;;22.00;29.90;;;;;;5038350;28;20025;-76
2022/03/31 05:16:46;;;;;;;1.20;0.80;;;21.90;29.90;;;;;;5037606;28;20073;-79
2022/03/31 05:19:12;;;;;;;1.15;0.80;;;21.90;29.90;;;;;;5035490;28;20103;-77
2022/03/31 05:21:38;;;;;;;1.63;0.75;;;21.90;29.90;;;;;;5018632;28;20030;-76
2022/03/31 05:24:05;;;;;;;1.15;0.70;;;21.80;29.90;;;;;;5037427;28;20020;-77
2022/03/31 05:26:31;;;;;;;0.70;0.70;;;21.80;30.00;;;;;;5035702;28;20071;-75
2022/03/31 05:28:57;;;;;;;1.48;0.80;;;21.80;29.90;;;;;;5035476;28;20021;-76
2022/03/31 05:31:23;;;;;;;0.80;0.60;;;21.80;29.90;;;;;;5035206;28;20025;-76
2022/03/31 05:33:49;;;;;;;0.70;0.70;;;21.80;29.80;;;;;;5034896;28;20022;-77
2022/03/31 05:36:14;;;;;;;1.00;0.70;;;21.80;29.90;;;;;;5018652;28;20036;-79
2022/03/31 05:38:40;;;;;;;1.30;0.70;;;21.80;29.80;;;;;;5034339;28;20018;-75
2022/03/31 05:41:07;;;;;;;0.70;0.70;;;21.80;29.90;;;;;;5034939;28;20025;-76
2022/03/31 05:43:33;;;;;;;0.93;0.73;;;21.80;29.80;;;;;;5036028;28;20083;-76
2022/03/31 05:46:01;;;;;;;2.15;0.70;;;21.80;29.70;;;;;;5037861;28;20044;-78
2022/03/31 05:48:28;;;;;;;1.38;0.90;;;21.80;29.70;;;;;;5036622;28;20099;-76
2022/03/31 05:50:54;;;;;;;1.10;0.70;;;21.80;29.70;;;;;;5025065;28;20088;-76
2022/03/31 05:53:20;;;;;;;1.15;0.60;;;21.80;29.70;;;;;;5039674;28;20478;-75
2022/03/31 05:55:46;;;;;;;0.73;0.60;;;21.80;29.60;;;;;;5034846;28;20040;-76
2022/03/31 05:58:12;;;;;;;0.77;0.50;;;21.90;29.60;;;;;;5036177;28;20049;-77
2022/03/31 06:00:38;;;;;;;0.73;0.65;;;21.80;29.50;;;;;;5036932;28;20071;-76
2022/03/31 06:03:04;;;;;;;0.50;0.50;;;21.90;29.50;;;;;;5018515;28;20029;-76
2022/03/31 06:05:30;;;;;;;0.95;0.60;;;21.90;29.50;;;;;;5036361;28;20030;-76
2022/03/31 06:07:56;;;;;;;1.05;0.60;;;21.80;29.40;;;;;;5036472;28;20072;-77
2022/03/31 06:10:22;;;;;;;1.15;0.50;;;21.80;29.40;;;;;;5037346;28;20033;-76
2022/03/31 06:12:48;;;;;;;2.88;0.82;;;21.80;29.40;;;;;;5036106;28;20026;-76
2022/03/31 06:15:17;;;;;;;0.47;0.47;;;21.90;29.40;;;;;;5035832;28;20207;-76
2022/03/31 06:17:44;;;;;;;0.90;0.70;;;21.80;29.40;;;;;;5034375;28;20135;-76
2022/03/31 06:20:14;;;;;;;1.35;0.70;;;21.80;29.40;;;;;;5033215;28;20113;-75
2022/03/31 06:22:40;;;;;;;0.60;0.60;;;21.90;29.40;;;;;;5033400;28;20155;-75
2022/03/31 06:25:10;;;;;;;0.70;0.50;;;21.80;29.40;;;;;;5034225;28;20025;-74
2022/03/31 06:27:37;;;;;;;1.50;0.60;;;21.90;29.30;;;;;;5035769;28;20108;-74
2022/03/31 06:30:03;;;;;;;1.15;0.80;;;21.90;29.30;;;;;;5037676;28;20013;-75
2022/03/31 06:32:29;;;;;;;2.45;0.80;;;21.90;29.30;;;;;;5035896;28;20020;-78
2022/03/31 06:34:55;;;;;;;3.67;0.63;;;21.90;29.40;;;;;;5035871;28;20027;-75
2022/03/31 06:37:21;;;;;;;2.35;0.70;;;21.90;29.40;;;;;;5036613;28;20106;-75
2022/03/31 06:39:48;;;;;;;1.90;0.60;;;21.90;29.30;;;;;;5034388;28;20071;-75
2022/03/31 06:42:14;;;;;;;3.08;0.70;;;21.90;29.30;;;;;;5037983;28;20100;-80
2022/03/31 06:44:40;;;;;;;3.50;0.68;;;21.90;29.20;;;;;;5035554;28;20460;-76
2022/03/31 06:47:07;;;;;;;2.83;0.70;;;22.00;29.20;;;;;;5037130;28;20024;-76
2022/03/31 06:49:34;;;;;;;2.83;1.00;;;21.90;29.10;;;;;;5040069;28;20104;-77
2022/03/31 06:52:00;;;;;;;2.15;0.70;;;22.00;29.10;;;;;;5023372;28;20009;-80
2022/03/31 06:54:28;;;;;;;2.58;0.80;;;21.90;28.90;;;;;;5037374;28;20048;-76
2022/03/31 06:56:55;;;;;;;1.70;0.60;;;22.00;29.00;;;;;;5037349;28;20009;-76
2022/03/31 06:59:21;;;;;;;2.45;0.70;;;21.90;28.90;;;;;;5037761;28;20022;-87
2022/03/31 07:01:48;;;;;;;3.05;0.75;;;21.90;28.90;;;;;;5041956;28;20026;-76
2022/03/31 07:04:14;;;;;;;1.35;0.77;;;22.00;28.70;;;;;;5040289;28;20051;-77
2022/03/31 07:06:41;;;;;;;1.48;0.70;;;22.00;28.70;;;;;;5039119;28;20028;-75
2022/03/31 07:09:07;;;;;;;3.70;0.70;;;22.00;28.70;;;;;;5037404;28;20037;-75
2022/03/31 07:11:34;;;;;;;1.42;0.63;;;22.00;28.60;;;;;;5037153;28;20092;-76
2022/03/31 07:14:04;;;;;;;1.15;0.60;;;22.00;28.60;;;;;;5036386;28;20048;-76
2022/03/31 07:16:32;;;;;;;4.47;0.75;;;22.00;28.60;;;;;;5035353;28;20057;-86
2022/03/31 07:19:03;;;;;;;1.77;0.57;;;22.00;28.50;;;;;;5035905;28;20056;-75
2022/03/31 07:21:29;;;;;;;2.70;0.77;;;22.00;28.40;;;;;;5036809;28;20488;-81
2022/03/31 07:23:55;;;;;;;2.20;0.70;;;22.10;28.30;;;;;;5037406;28;20018;-76
2022/03/31 07:26:25;;;;;;;3.42;0.73;;;22.10;28.30;;;;;;5037082;28;20026;-75
2022/03/31 07:28:51;;;;;;;1.75;0.63;;;22.10;28.30;;;;;;5041510;28;20096;-74
2022/03/31 07:31:16;;;;;;;3.03;0.60;;;22.10;28.30;;;;;;5043159;28;20106;-74
2022/03/31 07:33:42;;;;;;;2.22;0.77;;;22.20;28.30;;;;;;5045048;28;20026;-75
2022/03/31 07:36:09;;;;;;;1.23;0.60;;;22.20;28.20;;;;;;5046825;28;20029;-75
2022/03/31 07:38:35;;;;;;;2.50;0.60;;;22.20;28.30;;;;;;5045113;28;20021;-76
2022/03/31 07:41:01;;;;;;;4.07;0.70;;;22.20;28.70;;;;;;5044926;28;20021;-75
2022/03/31 07:43:27;;;;;;;5.05;0.80;;;22.20;28.20;;;;;;5044712;28;20013;-75
2022/03/31 07:45:53;;;;;;;8.10;1.08;;;22.20;28.20;;;;;;5027874;28;20068;-76
2022/03/31 07:48:18;;;;;;;7.18;0.88;;;22.20;28.20;;;;;;5025788;28;20013;-73
2022/03/31 07:50:44;;;;;;;9.38;0.88;;;22.10;28.20;;;;;;5041916;28;20049;-74
2022/03/31 07:53:11;;;;;;;6.45;0.82;;;22.20;28.20;;;;;;5043339;28;20053;-74
2022/03/31 07:55:37;;;;;;;7.00;0.90;;;22.20;28.20;;;;;;5042727;28;20028;-75
2022/03/31 07:58:03;;;;;;;2.08;0.60;;;22.20;28.20;;;;;;5042964;28;20044;-86
2022/03/31 08:00:29;;;;;;;4.75;0.65;;;22.20;28.20;;;;;;5040979;28;20025;-74
2022/03/31 08:02:57;;;;;;;6.40;0.80;;;22.20;28.10;;;;;;5042530;28;20045;-75
2022/03/31 08:05:24;;;;;;;5.18;1.30;;;22.20;28.10;;;;;;5043450;28;20087;-74
2022/03/31 08:07:50;;;;;;;3.63;0.80;;;22.20;28.20;;;;;;5042335;28;20053;-79
2022/03/31 08:10:16;;;;;;;6.90;0.95;;;22.10;28.10;;;;;;5044613;28;20052;-74
2022/03/31 08:12:45;;;;;;;4.13;0.60;;;22.10;28.10;;;;;;5044787;28;20027;-75
2022/03/31 08:15:12;;;;;;;3.33;0.60;;;22.20;28.10;;;;;;5027317;28;20060;-83
2022/03/31 08:17:39;;;;;;;5.03;0.80;;;22.20;28.10;;;;;;5043334;28;20021;-73
2022/03/31 08:20:10;;;;;;;1.75;0.63;;;22.20;28.20;;;;;;5028102;28;20025;-73
2022/03/31 08:22:38;;;;;;;4.03;0.70;;;22.20;28.30;;;;;;5045166;28;20017;-73
2022/03/31 08:25:05;;;;;;;3.88;0.70;;;22.20;28.30;;;;;;5043717;28;20048;-74
2022/03/31 08:27:32;;;;;;;6.57;1.02;;;22.20;28.30;;;;;;5046741;28;20112;-74
2022/03/31 08:30:00;;;;;;;3.67;0.80;;;22.20;28.30;;;;;;5046092;28;20013;-74
2022/03/31 08:32:26;;;;;;;5.13;1.05;;;22.30;28.30;;;;;;5046380;28;20022;-80
2022/03/31 08:34:52;;;;;;;5.22;0.90;;;22.30;28.30;;;;;;5044876;28;20022;-74
2022/03/31 08:37:19;;;;;;;7.30;0.73;;;22.30;28.20;;;;;;5046435;28;20022;-73
2022/03/31 08:39:44;;;;;;;6.57;0.80;;;22.40;28.20;;;;;;5042697;28;20013;-85
2022/03/31 08:42:11;;;;;;;10.95;0.85;;;22.40;28.20;;;;;;5042483;28;20009;-73
2022/03/31 08:44:39;;;;;;;4.95;1.08;;;22.40;28.20;;;;;;5042913;28;20056;-74
2022/03/31 08:47:06;;;;;;;6.80;0.70;;;22.40;28.20;;;;;;5044731;28;20053;-74
2022/03/31 08:49:34;;;;;;;8.05;0.95;;;22.40;28.10;;;;;;5045570;28;20020;-74
2022/03/31 08:51:59;;;;;;;4.95;0.88;;;22.40;28.10;;;;;;5028717;28;20013;-75
2022/03/31 08:54:25;;;;;;;3.75;0.70;;;22.50;28.00;;;;;;5044338;28;20036;-75
2022/03/31 08:56:54;;;;;;;3.92;1.02;;;22.50;28.00;;;;;;5025672;28;20423;-76
2022/03/31 08:59:19;;;;;;;8.13;0.73;;;22.50;28.00;;;;;;5040309;28;20022;-86
2022/03/31 09:01:45;;;;;;;5.82;0.70;;;22.50;28.00;;;;;;5039040;28;20029;-73
2022/03/31 09:04:22;;;;;;;5.97;0.75;;;22.50;28.00;;;;;;5037231;28;20013;-76
2022/03/31 09:06:49;;;;;;;6.97;0.90;;;22.50;28.00;;;;;;5038783;28;20029;-88
2022/03/31 09:09:17;;;;;;;12.93;1.10;;;22.50;27.90;;;;;;5036102;28;20075;-75
2022/03/31 09:11:49;;;;;;;6.97;0.80;;;22.50;27.90;;;;;;5038489;28;20018;-75
2022/03/31 09:14:16;;;;;;;3.20;0.60;;;22.50;27.80;;;;;;5039043;28;20092;-76
2022/03/31 09:16:43;;;;;;;4.07;0.70;;;22.50;27.80;;;;;;5036617;28;20041;-75
2022/03/31 09:19:10;;;;;;;3.95;0.80;;;22.60;27.80;;;;;;5037762;28;20376;-75
2022/03/31 09:22:00;;;;;;;8.13;0.70;;;22.60;27.90;;;;;;5036455;28;20056;-75
2022/03/31 09:24:27;;;;;;;3.45;0.60;;;22.50;27.90;;;;;;5035918;28;20025;-76
2022/03/31 09:26:53;;;;;;;5.72;0.77;;;22.60;27.90;;;;;;5035764;28;20123;-76
2022/03/31 09:29:24;;;;;;;4.32;0.80;;;22.60;27.90;;;;;;5018828;28;20017;-76
2022/03/31 09:31:51;;;;;;;8.32;0.93;;;22.60;28.00;;;;;;5035706;28;20071;-78
2022/03/31 09:34:18;;;;;;;6.88;1.02;;;22.50;28.00;;;;;;5036677;28;20082;-76
2022/03/31 09:36:51;;;;;;;5.68;1.02;;;22.50;28.00;;;;;;5037092;28;20021;-78
2022/03/31 09:39:18;;;;;;;5.13;0.60;;;22.70;28.00;;;;;;5038110;28;20048;-78
2022/03/31 09:41:47;;;;;;;5.25;0.90;;;22.70;27.90;;;;;;5036305;28;20026;-79
2022/03/31 09:44:18;;;;;;;;;;;22.60;27.80;;;;;;5036916;28;20013;-77
2022/03/31 09:46:44;;;;;;;6.38;0.70;;;22.70;27.90;;;;;;5038094;28;19975;-77
2022/03/31 09:49:23;;;;;;;2.90;0.68;;;22.70;27.90;;;;;;5036429;28;20025;-77
2022/03/31 09:51:56;;;;;;;3.97;0.93;;;22.70;27.90;;;;;;5034627;28;20021;-76
2022/03/31 09:54:26;;;;;;;3.42;0.90;;;22.60;27.80;;;;;;5038603;28;20023;-78
2022/03/31 09:56:56;;;;;;;5.63;0.65;;;22.60;27.80;;;;;;5037302;28;20016;-77
2022/03/31 09:59:22;;;;;;;3.95;0.50;;;22.60;27.80;;;;;;5020267;28;20026;-76
2022/03/31 10:01:47;;;;;;;3.55;0.50;;;22.70;27.70;;;;;;5035666;28;20067;-76
2022/03/31 10:04:14;;;;;;;1.95;0.68;;;22.70;27.50;;;;;;5037721;28;20017;-78
2022/03/31 10:06:42;;;;;;;2.72;0.60;;;22.90;27.50;;;;;;5037106;28;20025;-74
2022/03/31 10:09:09;;;;;;;5.05;1.02;;;22.90;27.50;;;;;;5036556;28;20014;-88
2022/03/31 10:11:39;;;;;;;3.35;0.70;;;23.00;27.40;;;;;;5038175;28;20112;-77
2022/03/31 10:14:04;;;;;;;2.95;0.50;;;23.10;27.40;;;;;;5037012;28;20077;-76
2022/03/31 10:16:54;;;;;;;4.18;0.63;;;23.10;27.40;;;;;;5037224;28;20045;-75
2022/03/31 10:19:37;;;;;;;6.63;0.70;;;23.10;27.40;;;;;;5036404;28;20021;-75
2022/03/31 10:25:03;;;;;;;3.75;0.80;;;23.10;27.40;;;;;;5039023;28;20029;-76
2022/03/31 10:27:33;;;;;;;6.93;0.60;;;23.10;27.50;;;;;;5038328;28;20610;-74
2022/03/31 10:30:12;;;;;;;4.00;0.60;;;23.10;27.50;;;;;;5039305;28;20380;-78
2022/03/31 10:32:48;;;;;;;2.85;0.77;;;23.10;27.60;;;;;;5037892;28;20476;-76
2022/03/31 10:35:27;;;;;;;6.32;1.00;;;23.00;27.60;;;;;;5036609;28;20025;-74
2022/03/31 10:37:54;;;;;;;6.68;1.00;;;23.00;27.80;;;;;;5019802;28;20017;-75
2022/03/31 10:40:31;;;;;;;6.60;0.85;;;23.00;27.90;;;;;;5035561;28;20014;-74
2022/03/31 10:43:00;;;;;;;3.40;0.68;;;23.00;27.90;;;;;;5037021;28;20037;-76
2022/03/31 10:45:37;;;;;;;4.33;0.50;;;23.00;28.00;;;;;;5021301;28;20033;-77
2022/03/31 10:48:28;;;;;;;2.55;0.50;;;23.00;28.10;;;;;;5037165;28;20013;-76
2022/03/31 10:51:05;;;;;;;8.60;1.20;;;22.70;28.20;;;;;;5037534;28;20010;-75
2022/03/31 10:53:32;;;;;;;16.00;1.60;;;22.10;28.90;;;;;;5022067;28;20020;-77
2022/03/31 10:55:58;;;;;;;15.43;1.67;;;21.90;29.40;;;;;;5041937;28;20021;-76
2022/03/31 10:58:26;;;;;;;17.15;2.58;;;21.50;29.40;;;;;;5040499;28;20045;-76
2022/03/31 11:00:55;;;;;;;13.27;1.90;;;21.50;29.70;;;;;;5041589;28;20018;-78
2022/03/31 11:03:22;;;;;;;12.95;1.88;;;21.20;29.40;;;;;;5041160;28;20013;-76
2022/03/31 11:05:50;;;;;;;12.68;2.00;;;20.90;29.70;;;;;;5039410;28;20104;-74
2022/03/31 11:08:17;;;;;;;30.55;2.28;;;20.90;29.30;;;;;;5025134;28;20013;-76
2022/03/31 11:10:52;;;;;;;12.52;1.75;;;21.00;30.00;;;;;;5023413;28;20050;-77
2022/03/31 11:13:18;;;;;;;15.60;1.70;;;21.10;29.90;;;;;;5058201;28;20017;-76
2022/03/31 11:15:50;;;;;;;13.77;1.92;;;21.20;30.00;;;;;;5040159;28;20606;-76
2022/03/31 11:18:20;;;;;;;9.55;1.27;;;21.30;30.00;;;;;;5040700;28;20025;-77
2022/03/31 11:20:49;;;;;;;16.13;1.58;;;21.30;29.90;;;;;;5041353;28;20101;-76
2022/03/31 11:23:15;;;;;;;10.45;1.45;;;21.20;29.90;;;;;;5040650;28;20018;-76
2022/03/31 11:25:44;;;;;;;12.65;1.77;;;21.20;29.90;;;;;;5040230;28;20495;-75
2022/03/31 11:28:12;;;;;;;8.65;1.60;;;21.30;29.80;;;;;;5042286;28;20106;-76
2022/03/31 11:30:38;;;;;;;10.80;1.45;;;21.40;30.00;;;;;;5041810;28;20024;-74
2022/03/31 11:33:05;;;;;;;9.02;1.60;;;21.40;29.90;;;;;;5039441;28;20026;-75
2022/03/31 11:35:31;;;;;;;8.32;1.25;;;21.40;30.00;;;;;;5040061;28;20017;-77
2022/03/31 11:38:00;;;;;;;9.23;1.63;;;21.40;30.00;;;;;;5025145;28;20044;-77
2022/03/31 11:40:31;;;;;;;8.80;1.45;;;21.20;30.00;;;;;;5027110;28;20100;-75
2022/03/31 11:43:01;;;;;;;10.90;1.70;;;20.80;30.70;;;;;;5045077;28;20088;-77
2022/03/31 11:45:36;;;;;;;16.45;1.75;;;21.10;30.50;;;;;;5031007;28;20168;-75
2022/03/31 11:48:03;;;;;;;20.08;1.95;;;21.50;30.60;;;;;;5050143;28;20460;-75
2022/03/31 11:50:30;;;;;;;17.45;1.92;;;21.90;30.40;;;;;;5048532;28;20006;-77
2022/03/31 11:52:56;;;;;;;12.63;1.48;;;22.10;30.20;;;;;;5049767;28;20025;-76
2022/03/31 11:55:24;;;;;;;7.90;1.48;;;22.20;30.10;;;;;;5032213;28;20021;-76
2022/03/31 11:57:52;;;;;;;10.93;1.70;;;22.40;30.10;;;;;;5049408;28;20063;-78
2022/03/31 12:00:19;;;;;;;12.23;1.63;;;22.50;30.00;;;;;;5050398;28;20014;-76
2022/03/31 12:03:02;;;;;;;11.77;1.17;;;22.60;30.60;;;;;;5050414;28;20033;-78
2022/03/31 12:05:29;;;;;;;7.80;1.27;;;22.70;30.00;;;;;;5052058;28;20037;-76
2022/03/31 12:08:00;;;;;;;7.97;1.15;;;22.80;30.10;;;;;;5051526;28;20002;-75
2022/03/31 12:10:30;;;;;;;11.30;1.40;;;22.90;30.10;;;;;;5052534;28;20464;-76
2022/03/31 12:12:56;;;;;;;9.40;1.15;;;22.70;30.30;;;;;;5050617;28;20014;-76
2022/03/31 12:15:24;;;;;;;5.63;1.30;;;22.50;30.00;;;;;;5051991;28;20079;-76
2022/03/31 12:18:07;;;;;;;9.07;1.58;;;22.40;29.70;;;;;;5054897;28;20017;-77
2022/03/31 12:20:34;;;;;;;12.98;1.58;;;22.50;29.60;;;;;;5053692;28;20124;-73
2022/03/31 12:23:01;;;;;;;10.90;1.30;;;22.70;29.60;;;;;;5054002;28;20017;-76
2022/03/31 12:25:36;;;;;;;15.85;1.80;;;22.70;29.50;;;;;;5054739;28;20021;-77
2022/03/31 12:28:04;;;;;;;14.05;1.92;;;22.90;29.50;;;;;;5054555;28;20012;-78
2022/03/31 12:30:39;;;;;;;12.98;1.48;;;22.90;29.30;;;;;;5053992;28;20073;-76
2022/03/31 12:33:16;;;;;;;29.88;3.05;;;23.00;29.30;;;;;;5052357;28;20122;-76
2022/03/31 12:35:42;;;;;;;16.80;1.60;;;22.40;29.00;;;;;;5052460;28;20068;-76
2022/03/31 12:38:09;;;;;;;17.17;1.50;;;21.40;29.40;;;;;;5052207;28;20036;-77
2022/03/31 12:40:35;;;;;;;18.52;1.63;;;20.70;30.10;;;;;;5052462;28;20069;-76
2022/03/31 12:43:02;;;;;;;23.10;1.60;;;20.70;29.30;;;;;;5053019;28;20026;-78
2022/03/31 12:45:31;;;;;;;13.77;1.33;;;20.50;30.20;;;;;;5051180;28;20467;-78
2022/03/31 12:47:57;;;;;;;13.20;1.35;;;20.80;29.80;;;;;;5044153;28;20081;-77
2022/03/31 12:50:25;;;;;;;15.00;1.40;;;20.90;28.90;;;;;;5047648;28;20030;-79
2022/03/31 12:52:58;;;;;;;9.57;1.17;;;20.40;28.80;;;;;;5046691;28;20092;-79